Terminal Aerodrome Forecast
Issued by NWS Anchorage, AK

Home | Current Version | Previous Version | Text Only | Print | Product List | Glossary On
Versions: 1 2 3 4 5 6 7 8 9 10 11 12 13 14 15 16 17 18 19 20
000
FTAK31 PANC 252033 AAB
TAFANC
TAF AMD
PANC 252033Z 2521/2624 15008KT P6SM VCSH FEW015 BKN040
     FM252300 32006KT P6SM -SHRA FEW015 SCT025 BKN035
     FM260800 34004KT P6SM VCSH SCT035 BKN060
     FM261500 VRB03KT P6SM SCT070 BKN120=

USA.gov is the U.S. government's official web portal to all federal, state and local government web resources and services.